Time;durP1;ratioP1;P1;durP2;ratioP2;P2;SDS_P1;SDS_P2;PMS_P1;PMS_P2;Temp;Humidity;BMP_temperature;BMP_pressure;BME280_temperature;BME280_humidity;BME280_pressure;Samples;Min_cycle;Max_cycle;Signal;HPM_P1;HPM_P2
2023/06/23 00:01:23;;;;;;;2.83;2.40;;;;;;;;;;5051421;28;20859;-84
2023/06/23 00:03:49;;;;;;;2.72;2.35;;;;;;;;;;5051563;28;20377;-83
2023/06/23 00:06:15;;;;;;;4.30;2.40;;;;;;;;;;5051769;28;20879;-83
2023/06/23 00:08:42;;;;;;;2.97;2.75;;;;;;;;;;5051301;28;20789;-84
2023/06/23 00:11:11;;;;;;;3.10;2.67;;;;;;;;;;5051409;28;20814;-84
2023/06/23 00:13:37;;;;;;;3.22;2.65;;;;;;;;;;5051422;28;20405;-84
2023/06/23 00:16:04;;;;;;;3.13;2.83;;;;;;;;;;5051408;28;20413;-83
2023/06/23 00:18:39;;;;;;;3.10;2.60;;;;;;;;;;5033258;28;20897;-84
2023/06/23 00:21:09;;;;;;;3.42;2.63;;;;;;;;;;5051147;28;21004;-82
2023/06/23 00:23:35;;;;;;;3.40;3.10;;;;;;;;;;5050142;28;20431;-83
2023/06/23 00:26:04;;;;;;;3.20;2.90;;;;;;;;;;5051032;28;20377;-84
2023/06/23 00:28:30;;;;;;;3.53;3.17;;;;;;;;;;5051016;28;20435;-84
2023/06/23 00:30:56;;;;;;;3.45;3.20;;;;;;;;;;5051184;28;20385;-84
2023/06/23 00:33:22;;;;;;;3.55;3.25;;;;;;;;;;5053006;28;20408;-83
2023/06/23 00:35:48;;;;;;;3.80;3.50;;;;;;;;;;5055098;28;20389;-83
2023/06/23 00:38:15;;;;;;;3.60;3.30;;;;;;;;;;5055153;28;20405;-83
2023/06/23 00:40:41;;;;;;;4.10;3.70;;;;;;;;;;5055174;28;20455;-83
2023/06/23 00:43:08;;;;;;;4.70;4.30;;;;;;;;;;5055153;28;20423;-83
2023/06/23 00:45:34;;;;;;;4.40;4.10;;;;;;;;;;5054961;28;20381;-83
2023/06/23 00:48:01;;;;;;;4.68;4.28;;;;;;;;;;5054872;28;20468;-83
2023/06/23 00:50:28;;;;;;;4.78;4.38;;;;;;;;;;5055028;28;20381;-83
2023/06/23 00:52:54;;;;;;;5.03;4.63;;;;;;;;;;5054914;28;20373;-84
2023/06/23 00:55:24;;;;;;;5.68;5.10;;;;;;;;;;5061471;28;20372;-82
2023/06/23 00:57:51;;;;;;;5.32;4.82;;;;;;;;;;5061518;28;20377;-83
2023/06/23 01:00:18;;;;;;;5.93;5.32;;;;;;;;;;5061934;28;20381;-84
2023/06/23 01:02:49;;;;;;;7.47;5.55;;;;;;;;;;5064098;28;20407;-82
2023/06/23 01:05:27;;;;;;;5.80;5.30;;;;;;;;;;5057649;28;20381;-82
2023/06/23 01:07:57;;;;;;;6.63;5.82;;;;;;;;;;5036464;28;20870;-83
2023/06/23 01:10:43;;;;;;;6.50;5.80;;;;;;;;;;5054553;28;20385;-84
2023/06/23 01:13:14;;;;;;;6.78;5.50;;;;;;;;;;5054145;28;20396;-82
2023/06/23 01:15:42;;;;;;;5.75;5.10;;;;;;;;;;5054276;28;20381;-83
2023/06/23 01:18:20;;;;;;;5.28;4.78;;;;;;;;;;5054403;28;20739;-83
2023/06/23 01:20:47;;;;;;;5.55;5.05;;;;;;;;;;5054472;28;20381;-83
2023/06/23 01:23:22;;;;;;;5.28;4.88;;;;;;;;;;5054037;28;20504;-83
2023/06/23 01:25:54;;;;;;;6.57;5.40;;;;;;;;;;5053961;28;20457;-83
2023/06/23 01:28:29;;;;;;;23.08;14.65;;;;;;;;;;5054283;28;20385;-82
2023/06/23 01:30:56;;;;;;;10.13;8.60;;;;;;;;;;5054002;28;20485;-83
2023/06/23 01:33:25;;;;;;;7.10;6.40;;;;;;;;;;5053881;28;20384;-82
2023/06/23 01:35:56;;;;;;;5.63;5.13;;;;;;;;;;5053898;28;20381;-82
2023/06/23 01:38:27;;;;;;;5.67;5.17;;;;;;;;;;5054100;28;20522;-83
2023/06/23 01:40:55;;;;;;;5.93;5.32;;;;;;;;;;5054246;28;20730;-82
2023/06/23 01:43:29;;;;;;;5.70;5.20;;;;;;;;;;5053675;28;20762;-82
2023/06/23 01:45:55;;;;;;;5.40;4.90;;;;;;;;;;5052918;28;20847;-82
2023/06/23 01:48:21;;;;;;;5.73;5.13;;;;;;;;;;5035986;28;20862;-82
2023/06/23 01:50:48;;;;;;;5.65;5.15;;;;;;;;;;5053843;28;20381;-82
2023/06/23 01:53:14;;;;;;;5.70;5.20;;;;;;;;;;5053401;28;20385;-82
2023/06/23 01:55:40;;;;;;;6.00;5.50;;;;;;;;;;5053416;28;20385;-82
2023/06/23 01:58:07;;;;;;;5.53;5.03;;;;;;;;;;5053735;28;20490;-82
2023/06/23 02:00:33;;;;;;;7.00;4.43;;;;;;;;;;5053566;28;20462;-83
2023/06/23 02:03:00;;;;;;;5.28;4.78;;;;;;;;;;5068621;28;20399;-83
2023/06/23 02:05:27;;;;;;;4.65;4.15;;;;;;;;;;5073423;28;20383;-82
2023/06/23 02:07:54;;;;;;;4.00;2.45;;;;;;;;;;5073450;28;20841;-82
2023/06/23 02:10:21;;;;;;;3.15;2.78;;;;;;;;;;5073501;28;20466;-82
2023/06/23 02:12:48;;;;;;;3.15;2.95;;;;;;;;;;5073287;28;20376;-82
2023/06/23 02:15:15;;;;;;;3.00;2.72;;;;;;;;;;5073366;28;20853;-82
2023/06/23 02:17:41;;;;;;;3.95;1.73;;;;;;;;;;5073287;28;20383;-81
2023/06/23 02:20:15;;;;;;;3.72;1.40;;;;;;;;;;5073335;28;20418;-81
2023/06/23 02:22:44;;;;;;;2.63;1.35;;;;;;;;;;5073212;28;20376;-81
2023/06/23 02:25:11;;;;;;;1.60;1.38;;;;;;;;;;5073135;28;20804;-81
2023/06/23 02:27:37;;;;;;;1.30;1.20;;;;;;;;;;5073026;28;20414;-81
2023/06/23 02:30:04;;;;;;;1.60;1.20;;;;;;;;;;5073298;28;20481;-84
2023/06/23 02:32:30;;;;;;;3.83;1.48;;;;;;;;;;5063746;28;20396;-82
2023/06/23 02:34:57;;;;;;;1.40;1.20;;;;;;;;;;5052983;28;20377;-81
2023/06/23 02:37:24;;;;;;;1.85;1.60;;;;;;;;;;5053029;28;20877;-82
2023/06/23 02:40:06;;;;;;;2.03;1.70;;;;;;;;;;5051589;22;20423;-82
2023/06/23 02:42:33;;;;;;;2.85;1.85;;;;;;;;;;5033010;28;20454;-82
2023/06/23 02:45:02;;;;;;;2.22;1.80;;;;;;;;;;5033001;28;20410;-82
2023/06/23 02:47:30;;;;;;;1.70;1.60;;;;;;;;;;5015476;28;20741;-83
2023/06/23 02:50:00;;;;;;;2.35;1.63;;;;;;;;;;5032746;28;20425;-82
2023/06/23 02:52:28;;;;;;;1.92;1.83;;;;;;;;;;5032788;28;20865;-82
2023/06/23 02:54:56;;;;;;;1.97;1.57;;;;;;;;;;5032873;28;20379;-82
2023/06/23 02:57:22;;;;;;;2.05;1.48;;;;;;;;;;5032392;28;20395;-82
2023/06/23 02:59:50;;;;;;;1.90;1.45;;;;;;;;;;5032634;28;20395;-83
2023/06/23 03:02:17;;;;;;;3.28;1.70;;;;;;;;;;5032861;28;20383;-82
2023/06/23 03:04:45;;;;;;;2.47;1.58;;;;;;;;;;5032678;28;20965;-83
2023/06/23 03:07:11;;;;;;;2.50;1.70;;;;;;;;;;5032695;28;20383;-83
2023/06/23 03:09:37;;;;;;;1.30;1.20;;;;;;;;;;5030515;28;20542;-83
2023/06/23 03:12:04;;;;;;;1.65;1.42;;;;;;;;;;5032449;28;20458;-83
2023/06/23 03:14:30;;;;;;;2.80;1.60;;;;;;;;;;5032590;28;20750;-83
2023/06/23 03:17:02;;;;;;;1.60;1.50;;;;;;;;;;5049347;28;20385;-83
2023/06/23 03:19:34;;;;;;;2.70;1.60;;;;;;;;;;5052115;28;20425;-83
2023/06/23 03:22:30;;;;;;;1.30;1.20;;;;;;;;;;5034556;28;20474;-83
2023/06/23 03:25:02;;;;;;;2.42;1.65;;;;;;;;;;5039386;28;20476;-82
2023/06/23 03:27:28;;;;;;;3.65;1.80;;;;;;;;;;5052131;28;20476;-82
2023/06/23 03:29:58;;;;;;;2.47;2.28;;;;;;;;;;5052301;28;20746;-82
2023/06/23 03:32:32;;;;;;;2.60;2.40;;;;;;;;;;5051986;28;20443;-82
2023/06/23 03:35:02;;;;;;;3.03;2.83;;;;;;;;;;5051775;28;20874;-83
2023/06/23 03:37:29;;;;;;;2.92;2.65;;;;;;;;;;5051818;28;20866;-83
2023/06/23 03:39:58;;;;;;;3.05;2.85;;;;;;;;;;5051545;28;20817;-83
2023/06/23 03:42:25;;;;;;;2.85;2.65;;;;;;;;;;5051635;28;20418;-83
2023/06/23 03:44:51;;;;;;;2.53;2.33;;;;;;;;;;5036440;28;20839;-82
2023/06/23 03:47:19;;;;;;;2.60;2.40;;;;;;;;;;5031968;28;20463;-81
2023/06/23 03:49:49;;;;;;;3.10;2.10;;;;;;;;;;5031685;28;20467;-82
2023/06/23 03:52:16;;;;;;;2.55;2.33;;;;;;;;;;5046994;28;20743;-82
2023/06/23 03:54:43;;;;;;;2.55;2.35;;;;;;;;;;5051694;28;20373;-83
2023/06/23 03:57:11;;;;;;;2.67;2.47;;;;;;;;;;5051451;28;20570;-82
2023/06/23 03:59:38;;;;;;;3.00;2.70;;;;;;;;;;5051402;28;20922;-82
2023/06/23 04:02:05;;;;;;;4.35;3.10;;;;;;;;;;5051548;28;20417;-82
2023/06/23 04:04:31;;;;;;;2.90;2.70;;;;;;;;;;5051504;28;20412;-83
2023/06/23 04:06:59;;;;;;;3.47;3.17;;;;;;;;;;5050857;28;20472;-82
2023/06/23 04:09:25;;;;;;;3.47;3.17;;;;;;;;;;5050934;28;20377;-82
2023/06/23 04:11:52;;;;;;;4.10;3.80;;;;;;;;;;5051365;28;20929;-82
2023/06/23 04:14:19;;;;;;;4.78;4.38;;;;;;;;;;5044358;28;20396;-82
2023/06/23 04:16:46;;;;;;;5.20;4.40;;;;;;;;;;5030981;28;20379;-82
2023/06/23 04:19:12;;;;;;;4.90;4.50;;;;;;;;;;5030883;28;20470;-82
2023/06/23 04:21:39;;;;;;;4.73;4.37;;;;;;;;;;5033258;28;20525;-82
2023/06/23 04:24:07;;;;;;;5.03;4.15;;;;;;;;;;5031108;28;20473;-82
2023/06/23 04:26:36;;;;;;;8.15;4.60;;;;;;;;;;5031417;28;20434;-82
2023/06/23 04:29:06;;;;;;;4.70;4.30;;;;;;;;;;5031096;28;20371;-82
2023/06/23 04:31:33;;;;;;;4.80;4.40;;;;;;;;;;5031500;28;20737;-83
2023/06/23 04:33:59;;;;;;;4.95;4.55;;;;;;;;;;5031262;28;20395;-82
2023/06/23 04:36:29;;;;;;;4.97;4.17;;;;;;;;;;5031006;28;20390;-82
2023/06/23 04:39:02;;;;;;;5.07;4.38;;;;;;;;;;5030991;28;20425;-82
2023/06/23 04:41:28;;;;;;;4.57;4.28;;;;;;;;;;5026368;28;20409;-82
2023/06/23 04:43:56;;;;;;;4.55;4.15;;;;;;;;;;5030987;28;20501;-82
2023/06/23 04:46:24;;;;;;;4.20;3.90;;;;;;;;;;5031054;28;20395;-82
2023/06/23 04:48:54;;;;;;;4.47;4.18;;;;;;;;;;5030954;28;20386;-82
2023/06/23 04:51:22;;;;;;;3.95;3.65;;;;;;;;;;5031056;28;20417;-83
2023/06/23 04:53:53;;;;;;;4.30;4.00;;;;;;;;;;5030880;28;20931;-83
2023/06/23 04:56:21;;;;;;;3.97;3.67;;;;;;;;;;5030919;28;20414;-81
2023/06/23 04:58:49;;;;;;;4.82;3.95;;;;;;;;;;5031210;28;20702;-82
2023/06/23 05:01:15;;;;;;;4.55;3.58;;;;;;;;;;5030979;28;20405;-82
2023/06/23 05:03:43;;;;;;;4.68;4.38;;;;;;;;;;5030794;28;20557;-82
2023/06/23 05:06:10;;;;;;;5.10;4.60;;;;;;;;;;5030826;28;20375;-81
2023/06/23 05:08:37;;;;;;;4.82;4.43;;;;;;;;;;5030816;28;20384;-81
2023/06/23 05:11:05;;;;;;;4.90;4.40;;;;;;;;;;5037241;28;20377;-82
2023/06/23 05:13:32;;;;;;;4.95;4.55;;;;;;;;;;5050649;28;20894;-82
2023/06/23 05:15:59;;;;;;;5.50;5.10;;;;;;;;;;5050639;28;20388;-82
2023/06/23 05:18:25;;;;;;;5.30;4.90;;;;;;;;;;5050870;28;20480;-85
2023/06/23 05:20:52;;;;;;;5.63;5.15;;;;;;;;;;5054826;28;20749;-82
2023/06/23 05:23:19;;;;;;;6.95;6.35;;;;;;;;;;5054261;28;20413;-81
2023/06/23 05:25:47;;;;;;;7.00;6.50;;;;;;;;;;5034252;28;20389;-81
2023/06/23 05:28:14;;;;;;;7.18;6.57;;;;;;;;;;5034145;28;20717;-83
2023/06/23 05:30:41;;;;;;;7.97;7.37;;;;;;;;;;5034084;28;20383;-82
2023/06/23 05:33:08;;;;;;;9.32;8.48;;;;;;;;;;5033951;28;20852;-82
2023/06/23 05:35:35;;;;;;;9.98;9.18;;;;;;;;;;5049173;28;20465;-82
2023/06/23 05:38:02;;;;;;;10.40;9.52;;;;;;;;;;5054051;28;20716;-85
2023/06/23 05:40:28;;;;;;;11.50;10.70;;;;;;;;;;5036131;28;20405;-84
2023/06/23 05:42:54;;;;;;;11.85;10.85;;;;;;;;;;5033822;28;20387;-84
2023/06/23 05:45:20;;;;;;;12.38;11.27;;;;;;;;;;5037329;28;20396;-83
2023/06/23 05:47:46;;;;;;;14.02;12.77;;;;;;;;;;5053587;28;20381;-83
2023/06/23 05:50:19;;;;;;;14.88;13.68;;;;;;;;;;5054109;28;20380;-83
2023/06/23 05:52:47;;;;;;;15.02;13.80;;;;;;;;;;5053859;28;20878;-84
2023/06/23 05:55:13;;;;;;;14.37;13.17;;;;;;;;;;5053924;28;20421;-83
2023/06/23 05:57:40;;;;;;;15.70;14.30;;;;;;;;;;5053798;28;20401;-84
2023/06/23 06:00:09;;;;;;;17.40;15.90;;;;;;;;;;5053746;28;20423;-84
2023/06/23 06:02:37;;;;;;;16.90;15.50;;;;;;;;;;5053583;28;20389;-83
2023/06/23 06:05:07;;;;;;;18.80;17.15;;;;;;;;;;5053657;28;20408;-83
2023/06/23 06:07:33;;;;;;;20.07;18.37;;;;;;;;;;5053671;28;20374;-83
2023/06/23 06:10:01;;;;;;;20.55;18.65;;;;;;;;;;5053553;28;20401;-83
2023/06/23 06:12:28;;;;;;;22.90;20.90;;;;;;;;;;5053394;28;20378;-84
2023/06/23 06:14:54;;;;;;;23.95;21.60;;;;;;;;;;5053589;28;20466;-83
2023/06/23 06:17:21;;;;;;;23.48;21.17;;;;;;;;;;5053482;28;20385;-83
2023/06/23 06:19:48;;;;;;;26.35;23.50;;;;;;;;;;5053320;28;20374;-84
2023/06/23 06:22:14;;;;;;;24.75;22.25;;;;;;;;;;5053330;28;20382;-84
2023/06/23 06:24:41;;;;;;;25.35;22.92;;;;;;;;;;5053358;28;20442;-83
2023/06/23 06:27:08;;;;;;;26.45;23.65;;;;;;;;;;5053367;28;20388;-83
2023/06/23 06:29:35;;;;;;;27.37;24.63;;;;;;;;;;5053101;28;20467;-83
2023/06/23 06:32:03;;;;;;;26.60;24.00;;;;;;;;;;5052232;28;20936;-83
2023/06/23 06:34:31;;;;;;;28.45;25.65;;;;;;;;;;5037180;28;21051;-83
2023/06/23 06:36:57;;;;;;;27.48;24.63;;;;;;;;;;5032976;28;20383;-82
2023/06/23 06:39:23;;;;;;;27.40;24.60;;;;;;;;;;5014736;28;20407;-83
2023/06/23 06:41:50;;;;;;;28.35;25.35;;;;;;;;;;5032753;28;20448;-84
2023/06/23 06:44:16;;;;;;;27.85;25.13;;;;;;;;;;5032751;28;20406;-83
2023/06/23 06:46:43;;;;;;;28.60;25.70;;;;;;;;;;5033083;28;20379;-84
2023/06/23 06:49:10;;;;;;;26.40;23.85;;;;;;;;;;5029501;28;20470;-82
2023/06/23 06:51:37;;;;;;;27.88;25.17;;;;;;;;;;5032904;28;20434;-81
2023/06/23 06:54:03;;;;;;;30.40;27.25;;;;;;;;;;5032817;28;20379;-82
2023/06/23 06:56:29;;;;;;;26.60;23.98;;;;;;;;;;5032822;28;20412;-83
2023/06/23 06:58:56;;;;;;;29.75;26.63;;;;;;;;;;5032543;28;20387;-81
2023/06/23 07:01:22;;;;;;;30.27;27.17;;;;;;;;;;5032547;28;20386;-81
2023/06/23 07:03:48;;;;;;;29.73;26.67;;;;;;;;;;5032460;28;20406;-82
2023/06/23 07:06:14;;;;;;;28.60;25.90;;;;;;;;;;5032558;28;20433;-83
2023/06/23 07:08:41;;;;;;;32.75;29.27;;;;;;;;;;5049119;28;20382;-82
2023/06/23 07:11:07;;;;;;;32.67;29.17;;;;;;;;;;5052273;28;20377;-82
2023/06/23 07:13:33;;;;;;;32.97;29.65;;;;;;;;;;5052196;28;20380;-82
2023/06/23 07:15:59;;;;;;;33.72;30.17;;;;;;;;;;5052487;28;20385;-83
2023/06/23 07:18:25;;;;;;;32.95;29.55;;;;;;;;;;5052021;28;20730;-83
2023/06/23 07:20:51;;;;;;;33.70;30.37;;;;;;;;;;5052280;28;20408;-81
2023/06/23 07:23:17;;;;;;;31.08;27.92;;;;;;;;;;5051999;28;20470;-83
2023/06/23 07:25:43;;;;;;;31.50;28.20;;;;;;;;;;5051957;28;20843;-84
2023/06/23 07:28:09;;;;;;;31.30;28.02;;;;;;;;;;5051888;28;20377;-82
2023/06/23 07:30:37;;;;;;;30.27;27.07;;;;;;;;;;5051847;28;20381;-82
2023/06/23 07:33:03;;;;;;;30.42;27.23;;;;;;;;;;5052058;28;20374;-83
2023/06/23 07:35:29;;;;;;;31.08;28.08;;;;;;;;;;5051769;28;20404;-82
2023/06/23 07:37:55;;;;;;;32.45;29.15;;;;;;;;;;5051411;28;20476;-83
2023/06/23 07:40:21;;;;;;;31.73;28.63;;;;;;;;;;5051589;28;20464;-84
2023/06/23 07:42:47;;;;;;;30.58;27.42;;;;;;;;;;5020960;28;20848;-83
2023/06/23 07:45:13;;;;;;;30.90;27.60;;;;;;;;;;5042218;28;20449;-84
2023/06/23 07:47:39;;;;;;;28.05;25.25;;;;;;;;;;5031404;28;20469;-82
2023/06/23 07:50:05;;;;;;;30.02;27.13;;;;;;;;;;5039183;28;20871;-84
2023/06/23 07:52:31;;;;;;;28.55;25.55;;;;;;;;;;5031521;28;20383;-84
2023/06/23 07:54:57;;;;;;;26.90;24.10;;;;;;;;;;5031545;28;20421;-83
2023/06/23 07:57:25;;;;;;;27.58;24.98;;;;;;;;;;5013998;28;20884;-82
2023/06/23 07:59:51;;;;;;;26.65;24.25;;;;;;;;;;5031679;28;20383;-84
2023/06/23 08:02:17;;;;;;;25.85;23.35;;;;;;;;;;5031744;28;20483;-81
2023/06/23 08:04:43;;;;;;;24.85;22.42;;;;;;;;;;5031520;28;20430;-83
2023/06/23 08:07:09;;;;;;;23.95;21.65;;;;;;;;;;5031673;28;20812;-85
2023/06/23 08:09:35;;;;;;;25.00;22.60;;;;;;;;;;5031453;28;20376;-84
2023/06/23 08:12:01;;;;;;;23.80;21.60;;;;;;;;;;5031587;28;20841;-81
2023/06/23 08:14:27;;;;;;;22.48;20.48;;;;;;;;;;5031459;28;20375;-82
2023/06/23 08:16:53;;;;;;;21.53;19.63;;;;;;;;;;5031437;28;20879;-82
2023/06/23 08:19:22;;;;;;;23.10;21.00;;;;;;;;;;5031458;28;20466;-83
2023/06/23 08:21:52;;;;;;;23.58;21.13;;;;;;;;;;5031492;28;20744;-84
2023/06/23 08:24:18;;;;;;;22.58;20.55;;;;;;;;;;5031258;28;20405;-83
2023/06/23 08:26:45;;;;;;;21.48;19.42;;;;;;;;;;5031305;28;20390;-83
2023/06/23 08:29:11;;;;;;;21.70;19.67;;;;;;;;;;5031307;28;20462;-83
2023/06/23 08:31:37;;;;;;;20.70;18.75;;;;;;;;;;5031349;28;20428;-84
2023/06/23 08:34:03;;;;;;;20.95;19.10;;;;;;;;;;5031453;28;20374;-84
2023/06/23 08:36:29;;;;;;;19.98;17.98;;;;;;;;;;5031123;28;20452;-84
2023/06/23 08:38:55;;;;;;;20.02;18.02;;;;;;;;;;5031047;28;20426;-83
2023/06/23 08:41:21;;;;;;;18.60;16.87;;;;;;;;;;5031209;28;20887;-83
2023/06/23 08:43:48;;;;;;;17.95;16.48;;;;;;;;;;5031015;28;20415;-84
2023/06/23 08:46:15;;;;;;;17.25;15.85;;;;;;;;;;5031096;28;20741;-84
2023/06/23 08:48:43;;;;;;;16.63;15.17;;;;;;;;;;5030240;28;20379;-84
2023/06/23 08:51:09;;;;;;;17.10;15.60;;;;;;;;;;5030908;28;20751;-83
2023/06/23 08:53:35;;;;;;;15.57;14.18;;;;;;;;;;5031239;28;20383;-83
2023/06/23 08:56:01;;;;;;;15.85;14.45;;;;;;;;;;5033052;28;20387;-83
2023/06/23 08:58:27;;;;;;;14.90;13.70;;;;;;;;;;5034803;28;20383;-84
2023/06/23 09:00:54;;;;;;;14.27;13.18;;;;;;;;;;5034922;28;20394;-84
2023/06/23 09:03:22;;;;;;;13.90;12.82;;;;;;;;;;5034850;28;20999;-84
2023/06/23 09:05:48;;;;;;;13.48;12.30;;;;;;;;;;5034882;28;20387;-84
2023/06/23 09:08:14;;;;;;;18.40;16.70;;;;;;;;;;5034869;28;20375;-84
2023/06/23 09:10:40;;;;;;;13.52;11.93;;;;;;;;;;5034737;28;20393;-84
2023/06/23 09:13:20;;;;;;;13.88;12.48;;;;;;;;;;5034829;28;20383;-84
2023/06/23 09:15:47;;;;;;;16.23;13.30;;;;;;;;;;5039975;28;20957;-83
2023/06/23 09:18:14;;;;;;;13.68;12.48;;;;;;;;;;5054604;28;20385;-84
2023/06/23 09:20:41;;;;;;;13.63;12.43;;;;;;;;;;5054529;28;20377;-84
2023/06/23 09:23:07;;;;;;;13.30;11.98;;;;;;;;;;5054519;28;20378;-84
2023/06/23 09:25:41;;;;;;;12.45;11.35;;;;;;;;;;5054446;28;20380;-84
2023/06/23 09:28:07;;;;;;;10.95;10.10;;;;;;;;;;5054333;28;20384;-84
2023/06/23 09:30:33;;;;;;;10.90;10.00;;;;;;;;;;5054257;28;20381;-83
2023/06/23 09:33:00;;;;;;;10.90;10.10;;;;;;;;;;5054332;28;20509;-83
2023/06/23 09:35:26;;;;;;;9.75;8.95;;;;;;;;;;5054158;28;20793;-84
2023/06/23 09:37:52;;;;;;;9.07;8.38;;;;;;;;;;5053921;28;20874;-83
2023/06/23 09:40:28;;;;;;;7.80;7.00;;;;;;;;;;5053718;28;20424;-84
2023/06/23 09:43:00;;;;;;;8.90;8.10;;;;;;;;;;5054182;28;20781;-83
2023/06/23 09:45:26;;;;;;;7.75;7.05;;;;;;;;;;5053923;28;20450;-84
2023/06/23 09:47:52;;;;;;;6.80;6.20;;;;;;;;;;5053592;28;20908;-83
2023/06/23 09:50:22;;;;;;;6.35;5.70;;;;;;;;;;5045544;28;20942;-83
2023/06/23 09:52:48;;;;;;;5.85;5.40;;;;;;;;;;5043063;28;20722;-83
2023/06/23 09:55:17;;;;;;;5.35;4.95;;;;;;;;;;5030776;28;20382;-84
2023/06/23 09:57:43;;;;;;;4.30;3.97;;;;;;;;;;5033843;28;20379;-84
2023/06/23 10:00:10;;;;;;;4.90;4.00;;;;;;;;;;5033662;28;20466;-83
2023/06/23 10:02:39;;;;;;;4.43;4.05;;;;;;;;;;5033616;28;20942;-84
2023/06/23 10:05:05;;;;;;;4.40;4.00;;;;;;;;;;5032692;28;20410;-84
2023/06/23 10:07:32;;;;;;;3.55;3.35;;;;;;;;;;5033522;28;20570;-84
2023/06/23 10:09:59;;;;;;;3.50;3.20;;;;;;;;;;5033527;28;20384;-84
2023/06/23 10:12:27;;;;;;;3.80;3.13;;;;;;;;;;5033579;28;20387;-83
2023/06/23 10:14:54;;;;;;;3.33;3.03;;;;;;;;;;5033662;28;20371;-83
2023/06/23 10:17:20;;;;;;;3.72;2.90;;;;;;;;;;5033625;28;20379;-84
2023/06/23 10:19:47;;;;;;;3.40;3.00;;;;;;;;;;5033422;28;20379;-83
2023/06/23 10:22:18;;;;;;;3.10;2.90;;;;;;;;;;5033468;28;20379;-83
2023/06/23 10:24:45;;;;;;;3.05;2.85;;;;;;;;;;5033677;28;20407;-83
2023/06/23 10:27:13;;;;;;;3.22;2.92;;;;;;;;;;5033494;28;20376;-83
2023/06/23 10:29:44;;;;;;;3.03;2.72;;;;;;;;;;5033066;28;20387;-83
2023/06/23 10:32:12;;;;;;;3.65;2.70;;;;;;;;;;5033392;28;20467;-83
2023/06/23 10:34:41;;;;;;;2.80;2.55;;;;;;;;;;5033240;28;20376;-82
2023/06/23 10:37:09;;;;;;;2.28;2.17;;;;;;;;;;5033136;28;20383;-82
2023/06/23 10:39:35;;;;;;;3.00;2.53;;;;;;;;;;5032888;28;20415;-83
2023/06/23 10:42:01;;;;;;;2.70;2.30;;;;;;;;;;5033242;28;20865;-83
2023/06/23 10:44:28;;;;;;;2.72;2.53;;;;;;;;;;5033026;28;20426;-83
2023/06/23 10:46:54;;;;;;;2.63;2.42;;;;;;;;;;5033282;28;20461;-83
2023/06/23 10:49:20;;;;;;;2.70;2.50;;;;;;;;;;5015041;28;20934;-83
2023/06/23 10:51:46;;;;;;;2.80;2.60;;;;;;;;;;5033046;28;20882;-83
2023/06/23 10:54:12;;;;;;;2.80;2.60;;;;;;;;;;5032963;28;20391;-83
2023/06/23 10:56:40;;;;;;;2.65;2.42;;;;;;;;;;5032663;28;20445;-83
2023/06/23 10:59:23;;;;;;;3.00;2.45;;;;;;;;;;5031684;28;20394;-83
2023/06/23 11:02:04;;;;;;;2.53;2.33;;;;;;;;;;5032413;28;20876;-83
2023/06/23 11:04:34;;;;;;;3.40;2.42;;;;;;;;;;5032578;28;20490;-84
2023/06/23 11:07:07;;;;;;;2.95;2.50;;;;;;;;;;5028916;28;20385;-83
2023/06/23 11:09:55;;;;;;;3.72;2.50;;;;;;;;;;5032456;28;20425;-83
2023/06/23 11:12:39;;;;;;;2.63;2.28;;;;;;;;;;5032582;28;20856;-84
2023/06/23 11:15:23;;;;;;;2.38;2.10;;;;;;;;;;5032362;28;20922;-84
2023/06/23 11:17:49;;;;;;;2.50;2.30;;;;;;;;;;5031981;28;20391;-84
2023/06/23 11:20:24;;;;;;;3.20;2.10;;;;;;;;;;5033755;28;20387;-83
2023/06/23 11:22:59;;;;;;;2.50;2.30;;;;;;;;;;5012591;28;20413;-83
2023/06/23 11:25:29;;;;;;;2.40;2.20;;;;;;;;;;5012659;28;20491;-84
2023/06/23 11:28:13;;;;;;;2.78;2.00;;;;;;;;;;5012406;28;20447;-83
2023/06/23 11:30:58;;;;;;;2.55;2.35;;;;;;;;;;5035946;22;20423;-81
2023/06/23 11:33:31;;;;;;;3.15;2.03;;;;;;;;;;5071836;28;20388;-81
2023/06/23 11:36:10;;;;;;;3.03;2.40;;;;;;;;;;5070973;28;20383;-81
2023/06/23 11:38:38;;;;;;;2.30;2.10;;;;;;;;;;5071868;28;20869;-81
2023/06/23 11:41:04;;;;;;;2.30;2.00;;;;;;;;;;5078594;28;20378;-81
2023/06/23 11:43:33;;;;;;;2.03;1.83;;;;;;;;;;5092187;28;20412;-81
2023/06/23 11:46:05;;;;;;;2.30;2.10;;;;;;;;;;5077193;28;20372;-81
2023/06/23 11:48:31;;;;;;;2.20;2.00;;;;;;;;;;5071643;28;20375;-82
2023/06/23 11:50:58;;;;;;;2.65;2.20;;;;;;;;;;5070606;28;20383;-82
2023/06/23 11:53:24;;;;;;;2.97;2.30;;;;;;;;;;5071935;28;20391;-81
2023/06/23 11:55:51;;;;;;;2.08;1.90;;;;;;;;;;5071741;28;20376;-82
2023/06/23 11:58:19;;;;;;;2.63;2.20;;;;;;;;;;5071149;28;20446;-82
2023/06/23 12:00:45;;;;;;;2.83;1.98;;;;;;;;;;5068458;28;20752;-82
2023/06/23 12:03:15;;;;;;;2.20;2.10;;;;;;;;;;5070397;28;20479;-81
2023/06/23 12:05:42;;;;;;;2.72;2.00;;;;;;;;;;5067736;28;20381;-81
2023/06/23 12:08:08;;;;;;;2.40;2.20;;;;;;;;;;5066654;28;20472;-81
2023/06/23 12:10:38;;;;;;;2.20;2.00;;;;;;;;;;5061586;28;20403;-81
2023/06/23 12:13:06;;;;;;;2.33;2.13;;;;;;;;;;5057461;28;20383;-81
2023/06/23 12:15:35;;;;;;;2.20;2.00;;;;;;;;;;5055993;28;20383;-81
2023/06/23 12:18:01;;;;;;;3.28;2.08;;;;;;;;;;5053026;28;20378;-83
2023/06/23 12:20:27;;;;;;;2.25;1.95;;;;;;;;;;5051378;28;20451;-81
2023/06/23 12:22:53;;;;;;;2.53;2.33;;;;;;;;;;5051670;28;20381;-81
2023/06/23 12:25:19;;;;;;;2.20;2.00;;;;;;;;;;5051137;28;20492;-81
2023/06/23 12:27:52;;;;;;;3.60;2.03;;;;;;;;;;5051083;28;20385;-82
2023/06/23 12:30:19;;;;;;;2.35;2.15;;;;;;;;;;5050619;28;20862;-81
2023/06/23 12:32:45;;;;;;;2.55;2.28;;;;;;;;;;5051280;28;20758;-82
2023/06/23 12:35:11;;;;;;;2.30;2.20;;;;;;;;;;5050204;28;20445;-81
2023/06/23 12:37:45;;;;;;;2.05;1.85;;;;;;;;;;5051315;28;20469;-82
2023/06/23 12:40:12;;;;;;;2.03;1.92;;;;;;;;;;5051238;28;20378;-81
2023/06/23 12:42:38;;;;;;;2.25;2.05;;;;;;;;;;5051163;28;20401;-82
2023/06/23 12:45:05;;;;;;;2.13;2.03;;;;;;;;;;5051122;28;20438;-82
2023/06/23 12:47:31;;;;;;;1.80;1.70;;;;;;;;;;5051143;28;20771;-82
2023/06/23 12:50:10;;;;;;;1.77;1.67;;;;;;;;;;5051215;28;20463;-82
2023/06/23 12:52:36;;;;;;;2.22;2.05;;;;;;;;;;5051297;28;20758;-82
2023/06/23 12:55:02;;;;;;;2.10;1.90;;;;;;;;;;5051074;28;20377;-82
2023/06/23 12:57:28;;;;;;;2.00;1.90;;;;;;;;;;5051010;28;20392;-82
2023/06/23 12:59:54;;;;;;;2.13;1.98;;;;;;;;;;5051037;28;20389;-82
2023/06/23 13:02:20;;;;;;;2.58;1.90;;;;;;;;;;5050938;28;20381;-81
2023/06/23 13:04:46;;;;;;;2.30;2.10;;;;;;;;;;5050901;28;20894;-81
2023/06/23 13:07:12;;;;;;;1.83;1.73;;;;;;;;;;5051027;28;20374;-81
2023/06/23 13:09:38;;;;;;;2.10;2.00;;;;;;;;;;5065937;28;20861;-81
2023/06/23 13:12:05;;;;;;;3.20;2.08;;;;;;;;;;5070943;28;20463;-81
2023/06/23 13:14:31;;;;;;;1.90;1.70;;;;;;;;;;5070889;28;20402;-81
2023/06/23 13:16:57;;;;;;;2.50;2.03;;;;;;;;;;5071051;28;20388;-81
2023/06/23 13:19:23;;;;;;;2.20;2.00;;;;;;;;;;5070806;28;20384;-81
2023/06/23 13:21:51;;;;;;;1.90;1.80;;;;;;;;;;5068230;28;20488;-81
2023/06/23 13:24:18;;;;;;;1.95;1.85;;;;;;;;;;5067827;28;20420;-82
2023/06/23 13:26:44;;;;;;;2.07;1.97;;;;;;;;;;5058093;28;20833;-82
2023/06/23 13:29:10;;;;;;;2.20;2.00;;;;;;;;;;5058307;28;20404;-82
2023/06/23 13:31:36;;;;;;;2.30;2.00;;;;;;;;;;5050520;28;20452;-82
2023/06/23 13:34:02;;;;;;;2.35;2.15;;;;;;;;;;5050967;28;20769;-81
2023/06/23 13:36:28;;;;;;;2.20;2.00;;;;;;;;;;5049682;28;20468;-81
2023/06/23 13:38:54;;;;;;;2.40;2.20;;;;;;;;;;5050648;28;20391;-81
2023/06/23 13:41:20;;;;;;;2.00;1.90;;;;;;;;;;5066339;28;20394;-82
2023/06/23 13:43:46;;;;;;;2.30;2.10;;;;;;;;;;5074094;28;20404;-82
2023/06/23 13:46:13;;;;;;;2.10;1.97;;;;;;;;;;5074277;28;20384;-82
2023/06/23 13:48:39;;;;;;;1.92;1.80;;;;;;;;;;5072748;28;20403;-81
2023/06/23 13:51:05;;;;;;;2.25;1.88;;;;;;;;;;5068928;28;20385;-81
2023/06/23 13:53:32;;;;;;;1.98;1.88;;;;;;;;;;5057008;28;20388;-82
2023/06/23 13:55:58;;;;;;;1.95;1.85;;;;;;;;;;5073450;28;20861;-82
2023/06/23 13:58:24;;;;;;;2.30;2.00;;;;;;;;;;5073945;28;20387;-81
2023/06/23 14:00:52;;;;;;;2.38;2.17;;;;;;;;;;5073923;28;20380;-81
2023/06/23 14:03:18;;;;;;;1.90;1.80;;;;;;;;;;5073902;28;20419;-81
2023/06/23 14:05:44;;;;;;;2.72;1.88;;;;;;;;;;5074178;28;20774;-82
2023/06/23 14:08:10;;;;;;;1.90;1.80;;;;;;;;;;5073760;28;20453;-82
2023/06/23 14:10:36;;;;;;;2.10;1.98;;;;;;;;;;5073786;28;20889;-81
2023/06/23 14:13:02;;;;;;;2.47;2.28;;;;;;;;;;5073724;28;20437;-81
2023/06/23 14:15:28;;;;;;;2.63;2.10;;;;;;;;;;5073564;28;20820;-81
2023/06/23 14:17:54;;;;;;;2.85;2.33;;;;;;;;;;5073490;28;20389;-81
2023/06/23 14:20:20;;;;;;;2.53;2.33;;;;;;;;;;5073708;28;20418;-81
2023/06/23 14:22:46;;;;;;;2.30;2.10;;;;;;;;;;5073489;28;20787;-81
2023/06/23 14:25:12;;;;;;;2.90;2.13;;;;;;;;;;5073477;28;20410;-81
2023/06/23 14:27:38;;;;;;;2.30;2.10;;;;;;;;;;5073434;28;20372;-82
2023/06/23 14:30:04;;;;;;;2.47;2.28;;;;;;;;;;5073711;28;20397;-82
2023/06/23 14:32:30;;;;;;;2.35;2.15;;;;;;;;;;5070489;28;20503;-82
2023/06/23 14:34:57;;;;;;;4.60;2.10;;;;;;;;;;5055666;28;20464;-82
2023/06/23 14:37:23;;;;;;;2.50;2.30;;;;;;;;;;5072651;28;20932;-82
2023/06/23 14:39:49;;;;;;;2.70;2.50;;;;;;;;;;5058064;28;20394;-82